Time;durP1;ratioP1;P1;durP2;ratioP2;P2;SDS_P1;SDS_P2;PMS_P1;PMS_P2;Temp;Humidity;BMP_temperature;BMP_pressure;BME280_temperature;BME280_humidity;BME280_pressure;Samples;Min_cycle;Max_cycle;Signal;HPM_P1;HPM_P2
2023/07/15 00:01:24;;;;;;;3.05;1.83;;;;;;;23.18;46.36;100353.00;5140134;28;20326;-65
2023/07/15 00:03:53;;;;;;;4.20;1.90;;;;;;;23.15;46.39;100348.97;5142336;28;20150;-65
2023/07/15 00:06:21;;;;;;;4.55;2.03;;;;;;;23.13;45.98;100340.25;5141474;28;20043;-64
2023/07/15 00:08:51;;;;;;;2.97;1.90;;;;;;;23.13;46.01;100337.50;5136933;28;20179;-65
2023/07/15 00:11:26;;;;;;;4.13;2.38;;;;;;;23.11;46.37;100347.97;5139989;28;20047;-64
2023/07/15 00:13:54;;;;;;;2.80;1.77;;;;;;;23.10;46.11;100345.56;5142228;28;20051;-64
2023/07/15 00:16:22;;;;;;;2.65;1.65;;;;;;;23.09;46.01;100346.69;5139803;28;20205;-65
2023/07/15 00:18:50;;;;;;;3.88;2.20;;;;;;;23.04;46.54;100340.22;5146264;27;20051;-64
2023/07/15 00:21:20;;;;;;;2.88;1.88;;;;;;;23.05;46.22;100347.31;5144193;27;20068;-65
2023/07/15 00:23:52;;;;;;;2.85;1.90;;;;;;;23.03;46.36;100338.59;5145231;27;20039;-65
2023/07/15 00:26:22;;;;;;;3.53;2.20;;;;;;;23.01;46.38;100340.84;5145985;27;20039;-65
2023/07/15 00:28:50;;;;;;;3.13;2.00;;;;;;;23.00;46.01;100332.94;5137791;27;20047;-64
2023/07/15 00:31:20;;;;;;;3.40;1.83;;;;;;;22.99;46.08;100339.56;5143466;27;20051;-65
2023/07/15 00:33:48;;;;;;;4.43;2.40;;;;;;;22.98;46.14;100340.69;5145571;27;20039;-65
2023/07/15 00:36:16;;;;;;;4.93;2.60;;;;;;;22.97;46.32;100342.59;5145920;27;20069;-65
2023/07/15 00:38:45;;;;;;;3.33;1.85;;;;;;;22.96;46.24;100337.44;5144361;27;20054;-65
2023/07/15 00:41:17;;;;;;;4.13;2.20;;;;;;;22.93;46.24;100330.66;5144605;27;20185;-65
2023/07/15 00:43:54;;;;;;;4.90;2.40;;;;;;;22.92;46.10;100342.75;5142122;27;20565;-65
2023/07/15 00:46:35;;;;;;;4.95;2.05;;;;;;;22.91;45.92;100345.81;5140488;27;20108;-65
2023/07/15 00:49:06;;;;;;;5.22;1.95;;;;;;;22.90;46.15;100347.75;5145119;27;20043;-65
2023/07/15 00:51:39;;;;;;;5.22;1.80;;;;;;;22.89;46.32;100340.66;5145139;27;20043;-64
2023/07/15 00:54:09;;;;;;;4.07;1.88;;;;;;;22.88;46.39;100347.25;5145278;27;20084;-64
2023/07/15 00:56:40;;;;;;;3.80;1.90;;;;;;;22.87;46.14;100348.38;5144027;27;20196;-65
2023/07/15 00:59:10;;;;;;;3.10;1.90;;;;;;;22.85;45.98;100347.88;5142434;27;20142;-65
2023/07/15 01:01:40;;;;;;;4.35;1.83;;;;;;;22.84;46.21;100348.19;5142349;27;20043;-65
2023/07/15 01:04:08;;;;;;;3.33;1.70;;;;;;;22.83;46.26;100352.88;5144103;27;20073;-66
2023/07/15 01:06:36;;;;;;;3.95;2.08;;;;;;;22.82;46.17;100355.94;5142994;27;20069;-66
2023/07/15 01:09:07;;;;;;;3.65;1.80;;;;;;;22.79;46.30;100343.66;5144655;27;20088;-65
2023/07/15 01:11:35;;;;;;;3.28;1.63;;;;;;;22.79;45.92;100351.88;5142208;27;20063;-66
2023/07/15 01:14:04;;;;;;;2.72;1.85;;;;;;;22.79;46.08;100353.78;5143370;27;20051;-65
2023/07/15 01:16:33;;;;;;;2.20;1.73;;;;;;;22.78;45.95;100355.72;5139051;27;20044;-65
2023/07/15 01:19:03;;;;;;;3.17;1.95;;;;;;;22.77;45.95;100362.31;5141781;27;20047;-65
2023/07/15 01:21:33;;;;;;;1.83;1.70;;;;;;;22.74;46.23;100354.72;5144019;27;20482;-65
2023/07/15 01:24:02;;;;;;;2.80;1.90;;;;;;;22.74;46.14;100355.53;5140100;27;20035;-64
2023/07/15 01:26:30;;;;;;;5.05;1.60;;;;;;;22.73;45.94;100342.97;5145927;27;20055;-65
2023/07/15 01:28:58;;;;;;;1.67;1.50;;;;;;;22.73;46.14;100350.38;5138373;27;20043;-65
2023/07/15 01:31:26;;;;;;;2.47;1.65;;;;;;;22.72;45.99;100344.09;5141149;27;20043;-66
2023/07/15 01:33:54;;;;;;;3.67;1.80;;;;;;;22.71;46.29;100342.47;5139487;27;20039;-65
2023/07/15 01:36:24;;;;;;;3.25;1.88;;;;;;;22.71;46.17;100352.63;5143626;27;20500;-66
2023/07/15 01:38:52;;;;;;;4.55;2.15;;;;;;;22.69;46.21;100347.44;5145042;27;20059;-65
2023/07/15 01:41:22;;;;;;;2.58;1.70;;;;;;;22.70;46.12;100351.00;5143973;27;20492;-64
2023/07/15 01:43:49;;;;;;;3.88;1.80;;;;;;;22.68;46.25;100345.03;5136984;27;20498;-64
2023/07/15 01:46:17;;;;;;;1.92;1.42;;;;;;;22.65;46.25;100343.72;5142714;27;20147;-64
2023/07/15 01:48:45;;;;;;;2.78;1.90;;;;;;;22.65;45.94;100346.47;5141189;27;20051;-65
2023/07/15 01:51:13;;;;;;;2.83;1.77;;;;;;;22.63;46.05;100345.16;5143166;27;20038;-65
2023/07/15 01:53:41;;;;;;;2.97;1.83;;;;;;;22.62;46.25;100346.28;5142620;27;20046;-64
2023/07/15 01:56:08;;;;;;;4.85;1.90;;;;;;;22.60;46.18;100357.56;5144811;27;20123;-64
2023/07/15 01:58:38;;;;;;;2.67;1.85;;;;;;;22.59;46.15;100361.41;5145677;27;20059;-66
2023/07/15 02:01:05;;;;;;;3.58;2.08;;;;;;;22.58;46.00;100364.47;5144491;27;20058;-66
2023/07/15 02:03:33;;;;;;;5.13;1.88;;;;;;;22.56;46.20;100363.97;5144676;27;20074;-64
2023/07/15 02:06:01;;;;;;;3.13;1.90;;;;;;;22.54;46.09;100361.53;5140418;27;20076;-64
2023/07/15 02:08:29;;;;;;;3.17;1.77;;;;;;;22.53;46.35;100365.44;5135885;27;20047;-65
2023/07/15 02:10:57;;;;;;;2.72;1.77;;;;;;;22.51;46.22;100364.13;5142051;27;20134;-65
2023/07/15 02:13:25;;;;;;;3.00;1.80;;;;;;;22.50;46.31;100368.00;5144484;27;20046;-64
2023/07/15 02:15:54;;;;;;;2.10;1.60;;;;;;;22.48;46.18;100357.34;5138925;27;20067;-64
2023/07/15 02:18:24;;;;;;;6.63;2.30;;;;;;;22.47;46.25;100361.22;5146514;27;20065;-65
2023/07/15 02:20:52;;;;;;;4.75;1.88;;;;;;;22.45;46.35;100368.94;5145741;27;20134;-65
2023/07/15 02:23:19;;;;;;;3.08;1.70;;;;;;;22.44;46.23;100370.06;5146506;27;20518;-65
2023/07/15 02:25:47;;;;;;;4.63;2.00;;;;;;;22.43;46.43;100373.09;5140447;27;20051;-65
2023/07/15 02:28:15;;;;;;;3.75;1.75;;;;;;;22.42;46.23;100366.81;5144001;27;20225;-64
2023/07/15 02:30:43;;;;;;;2.63;1.60;;;;;;;22.40;46.31;100371.81;5140675;27;20043;-65
2023/07/15 02:33:12;;;;;;;5.10;2.33;;;;;;;22.37;46.23;100365.03;5140273;27;20039;-65
2023/07/15 02:35:40;;;;;;;2.95;1.60;;;;;;;22.37;46.23;100364.22;5140100;27;20483;-65
2023/07/15 02:38:09;;;;;;;3.03;1.65;;;;;;;22.36;46.23;100357.13;5142287;27;20075;-65
2023/07/15 02:40:36;;;;;;;2.40;1.77;;;;;;;22.33;46.42;100358.56;5142145;27;20047;-65
2023/07/15 02:43:04;;;;;;;4.50;1.88;;;;;;;22.32;46.24;100369.81;5142691;27;20047;-65
2023/07/15 02:45:32;;;;;;;2.78;1.70;;;;;;;22.31;46.57;100373.69;5143731;27;20084;-65
2023/07/15 02:48:00;;;;;;;4.53;1.90;;;;;;;22.28;46.37;100364.16;5143361;27;20068;-65
2023/07/15 02:50:29;;;;;;;2.80;1.80;;;;;;;22.27;46.66;100362.53;5142033;27;20086;-65
2023/07/15 02:52:57;;;;;;;6.43;1.85;;;;;;;22.26;46.38;100365.59;5143262;27;20043;-65
2023/07/15 02:55:26;;;;;;;2.53;1.63;;;;;;;22.25;46.45;100364.78;5138119;27;20113;-65
2023/07/15 02:57:53;;;;;;;4.15;1.92;;;;;;;22.24;46.61;100368.63;5142204;27;20043;-64
2023/07/15 03:00:22;;;;;;;2.88;1.50;;;;;;;22.22;46.60;100364.59;5144675;27;20428;-64
2023/07/15 03:02:51;;;;;;;4.53;1.70;;;;;;;22.20;46.40;100359.44;5141329;27;20051;-64
2023/07/15 03:05:19;;;;;;;2.45;1.55;;;;;;;22.20;46.58;100362.16;5142691;27;20047;-65
2023/07/15 03:07:49;;;;;;;7.05;1.63;;;;;;;22.17;46.55;100362.78;5145400;27;20062;-64
2023/07/15 03:10:18;;;;;;;4.28;2.20;;;;;;;22.17;46.49;100362.78;5145428;27;20051;-64
2023/07/15 03:12:48;;;;;;;4.13;1.75;;;;;;;22.18;46.71;100360.84;5137903;27;20047;-65
2023/07/15 03:15:16;;;;;;;3.67;1.92;;;;;;;22.15;46.75;100359.56;5144385;27;20110;-63
2023/07/15 03:17:44;;;;;;;4.25;1.80;;;;;;;22.14;46.79;100355.19;5138922;27;20180;-64
2023/07/15 03:20:19;;;;;;;2.85;1.50;;;;;;;22.14;46.58;100362.59;5142390;27;20051;-64
2023/07/15 03:22:50;;;;;;;2.17;1.67;;;;;;;22.13;46.53;100355.50;5145368;27;20047;-65
2023/07/15 03:25:19;;;;;;;4.80;1.70;;;;;;;22.12;46.81;100367.56;5143467;27;20047;-65
2023/07/15 03:27:48;;;;;;;4.60;1.95;;;;;;;22.11;46.58;100361.28;5144880;27;20142;-65
2023/07/15 03:30:16;;;;;;;4.53;1.85;;;;;;;22.10;46.72;100364.34;5141042;27;20073;-65
2023/07/15 03:32:45;;;;;;;3.22;1.80;;;;;;;22.08;46.75;100368.19;5139518;27;20055;-64
2023/07/15 03:35:14;;;;;;;3.88;1.75;;;;;;;22.06;46.84;100367.69;5142185;27;20438;-64
2023/07/15 03:37:43;;;;;;;3.42;1.55;;;;;;;22.05;46.88;100368.81;5142287;27;20039;-64
2023/07/15 03:40:13;;;;;;;6.03;1.88;;;;;;;22.05;46.85;100376.22;5137157;27;20064;-65
2023/07/15 03:42:41;;;;;;;2.97;1.90;;;;;;;21.96;46.83;100358.88;5140690;27;20050;-64
2023/07/15 03:45:10;;;;;;;3.47;1.85;;;;;;;21.98;46.78;100368.41;5139763;27;20069;-64
2023/07/15 03:47:38;;;;;;;4.45;1.98;;;;;;;21.97;47.04;100361.31;5136650;28;20043;-65
2023/07/15 03:50:09;;;;;;;4.65;1.90;;;;;;;21.99;46.97;100370.03;5135964;28;20043;-64
2023/07/15 03:52:37;;;;;;;3.85;1.75;;;;;;;21.99;47.01;100363.75;5143491;27;20052;-65
2023/07/15 03:55:05;;;;;;;5.60;1.77;;;;;;;21.96;47.05;100365.16;5136930;27;20066;-64
2023/07/15 03:57:35;;;;;;;2.95;1.90;;;;;;;21.95;46.97;100360.00;5147094;27;20039;-65
2023/07/15 04:00:06;;;;;;;4.47;1.90;;;;;;;21.95;47.07;100365.47;5141081;27;20039;-65
2023/07/15 04:02:34;;;;;;;3.38;1.48;;;;;;;21.93;47.09;100362.25;5143148;27;20043;-64
2023/07/15 04:05:02;;;;;;;2.63;1.70;;;;;;;21.91;47.03;100362.53;5142675;27;20074;-64
2023/07/15 04:07:30;;;;;;;2.70;1.58;;;;;;;21.91;47.05;100361.75;5142209;27;20100;-64
2023/07/15 04:09:57;;;;;;;3.72;1.90;;;;;;;21.90;47.22;100362.84;5141515;27;20220;-64
2023/07/15 04:12:25;;;;;;;2.70;1.70;;;;;;;21.89;47.23;100366.72;5144942;27;20047;-65
2023/07/15 04:14:54;;;;;;;4.75;1.73;;;;;;;21.86;47.27;100368.13;5144835;27;20449;-65
2023/07/15 04:17:22;;;;;;;3.72;1.50;;;;;;;21.84;47.29;100364.91;5141727;27;20054;-64
2023/07/15 04:19:50;;;;;;;3.25;1.70;;;;;;;21.84;47.25;100359.44;5145544;27;20077;-64
2023/07/15 04:22:18;;;;;;;4.05;2.35;;;;;;;21.82;47.33;100369.88;5139622;27;20043;-65
2023/07/15 04:24:46;;;;;;;5.68;1.83;;;;;;;21.82;47.35;100366.31;4783309;27;10000499;-64
2023/07/15 04:27:14;;;;;;;5.47;1.88;;;;;;;21.80;47.49;100369.38;5143769;27;20047;-64
2023/07/15 04:29:42;;;;;;;4.28;2.35;;;;;;;21.79;47.56;100370.50;5142160;27;20059;-65
2023/07/15 04:32:11;;;;;;;5.20;2.15;;;;;;;21.77;47.58;100367.25;5149215;27;20043;-64
2023/07/15 04:34:39;;;;;;;8.05;2.25;;;;;;;21.76;47.45;100368.38;5141900;27;20101;-64
2023/07/15 04:37:07;;;;;;;5.15;1.60;;;;;;;21.75;47.50;100375.78;5144388;27;20047;-65
2023/07/15 04:39:34;;;;;;;3.03;1.70;;;;;;;21.75;47.62;100374.97;5145591;27;20047;-64
2023/07/15 04:42:02;;;;;;;2.72;1.77;;;;;;;21.73;47.58;100377.19;5146703;27;20051;-64
2023/07/15 04:44:30;;;;;;;2.97;1.55;;;;;;;21.72;47.52;100384.59;5166383;27;20050;-64
2023/07/15 04:46:58;;;;;;;3.30;1.75;;;;;;;21.71;47.48;100388.44;5139914;27;20078;-64
2023/07/15 04:49:28;;;;;;;2.75;1.88;;;;;;;21.70;47.54;100388.75;5146423;27;20054;-66
2023/07/15 04:51:55;;;;;;;2.80;1.50;;;;;;;21.70;47.54;100391.47;5135088;27;20357;-65
2023/07/15 04:54:23;;;;;;;3.83;2.05;;;;;;;21.68;47.60;100391.78;5141454;27;20136;-65
2023/07/15 04:56:51;;;;;;;3.72;2.25;;;;;;;21.68;47.60;100396.44;5141078;27;20452;-65
2023/07/15 04:59:19;;;;;;;3.15;1.77;;;;;;;21.66;47.72;100394.03;5134140;27;20047;-69
2023/07/15 05:01:47;;;;;;;2.45;1.60;;;;;;;21.66;47.64;100394.03;5144124;27;20141;-65
2023/07/15 05:04:14;;;;;;;3.28;1.85;;;;;;;21.66;47.49;100385.00;5144006;27;20051;-65
2023/07/15 05:06:44;;;;;;;5.80;2.40;;;;;;;21.64;47.73;100392.72;5147983;27;20031;-66
2023/07/15 05:09:12;;;;;;;3.33;1.60;;;;;;;21.64;47.65;100388.03;5138304;27;20147;-67
2023/07/15 05:11:39;;;;;;;3.92;1.90;;;;;;;21.64;47.53;100392.72;5148527;27;20047;-64
2023/07/15 05:14:07;;;;;;;2.42;1.70;;;;;;;21.65;47.68;100394.31;5138669;27;20051;-64
2023/07/15 05:16:35;;;;;;;2.80;1.80;;;;;;;21.64;47.64;100385.31;5143863;27;20069;-65
2023/07/15 05:19:03;;;;;;;2.55;1.83;;;;;;;21.66;47.74;100383.09;5141173;27;20578;-66
2023/07/15 05:21:31;;;;;;;3.50;2.13;;;;;;;21.68;47.81;100388.25;5136054;27;20414;-65
2023/07/15 05:24:00;;;;;;;3.03;2.00;;;;;;;21.69;47.82;100384.38;5143271;27;20042;-65
2023/07/15 05:26:28;;;;;;;6.05;2.42;;;;;;;21.61;47.81;100369.53;5139550;27;20066;-65
2023/07/15 05:28:55;;;;;;;4.47;1.90;;;;;;;21.72;47.74;100384.59;5139070;27;20058;-64
2023/07/15 05:31:23;;;;;;;4.25;2.17;;;;;;;21.73;47.75;100383.47;5142128;27;20076;-65
2023/07/15 05:33:51;;;;;;;4.32;1.80;;;;;;;21.75;47.94;100383.97;5141974;27;20065;-65
2023/07/15 05:36:19;;;;;;;4.47;1.88;;;;;;;21.78;47.90;100396.22;5137308;27;20403;-65
2023/07/15 05:38:46;;;;;;;2.95;1.55;;;;;;;21.79;48.09;100395.09;5138574;27;20428;-64
2023/07/15 05:41:16;;;;;;;2.92;1.95;;;;;;;21.82;47.83;100388.22;5139030;27;20112;-65
2023/07/15 05:43:44;;;;;;;3.65;1.85;;;;;;;21.84;47.82;100388.72;5143316;27;20054;-65
2023/07/15 05:46:12;;;;;;;3.38;1.90;;;;;;;21.85;48.10;100393.88;5143774;27;20046;-65
2023/07/15 05:48:39;;;;;;;4.03;1.90;;;;;;;21.88;47.90;100392.44;5141261;27;20043;-65
2023/07/15 05:51:09;;;;;;;2.65;1.55;;;;;;;21.90;48.10;100404.72;5131529;27;20047;-65
2023/07/15 05:53:36;;;;;;;2.67;1.90;;;;;;;21.91;48.14;100403.59;5141386;27;20069;-65
2023/07/15 05:56:04;;;;;;;3.10;2.03;;;;;;;21.95;48.29;100398.31;5141209;27;20111;-65
2023/07/15 05:58:34;;;;;;;5.85;1.92;;;;;;;21.98;48.15;100401.25;5139973;27;20112;-65
2023/07/15 06:01:01;;;;;;;2.50;1.77;;;;;;;22.01;48.31;100406.09;5136843;27;20046;-65
2023/07/15 06:03:30;;;;;;;3.30;1.80;;;;;;;22.03;48.47;100398.41;5137567;27;20133;-65
2023/07/15 06:06:01;;;;;;;4.22;2.10;;;;;;;22.06;48.29;100413.41;5134226;27;20209;-65
2023/07/15 06:08:29;;;;;;;2.90;1.73;;;;;;;22.09;48.54;100410.06;5138031;27;20571;-65
2023/07/15 06:10:57;;;;;;;5.22;2.10;;;;;;;22.14;48.83;100420.06;5132921;27;20109;-65
2023/07/15 06:13:25;;;;;;;3.03;1.67;;;;;;;22.17;49.11;100416.72;5136650;27;20051;-64
2023/07/15 06:15:58;;;;;;;2.85;1.90;;;;;;;22.18;48.50;100402.72;5138140;27;20055;-64
2023/07/15 06:18:26;;;;;;;5.68;1.70;;;;;;;22.18;48.47;100405.47;5136986;27;20496;-64
2023/07/15 06:20:53;;;;;;;2.92;1.48;;;;;;;22.18;48.36;100402.72;5132667;27;20100;-64
2023/07/15 06:23:21;;;;;;;5.57;1.80;;;;;;;22.18;48.52;100410.13;5140681;27;20050;-63
2023/07/15 06:25:49;;;;;;;4.00;2.22;;;;;;;22.22;48.73;100408.38;5138541;27;20039;-62
2023/07/15 06:28:17;;;;;;;1.98;1.40;;;;;;;22.20;48.49;100407.88;5141794;27;20055;-66
2023/07/15 06:30:48;;;;;;;2.38;1.70;;;;;;;22.19;48.79;100414.47;5142486;27;20091;-64
2023/07/15 06:33:17;;;;;;;3.55;1.75;;;;;;;22.18;48.62;100418.34;5140439;27;20096;-66
2023/07/15 06:35:45;;;;;;;2.60;1.50;;;;;;;22.31;48.97;100412.81;5143752;27;21458;-65
2023/07/15 06:38:13;;;;;;;6.57;1.83;;;;;;;22.24;48.79;100417.91;5141570;27;20051;-65
2023/07/15 06:40:41;;;;;;;2.90;1.42;;;;;;;22.20;48.99;100407.88;5142167;27;20043;-65
2023/07/15 06:43:09;;;;;;;5.93;1.80;;;;;;;22.22;49.40;100403.72;5140133;27;20050;-65
2023/07/15 06:45:37;;;;;;;3.05;1.58;;;;;;;22.41;49.05;100409.03;5141212;27;20079;-65
2023/07/15 06:48:05;;;;;;;3.33;1.90;;;;;;;22.27;49.12;100400.06;5140188;27;20047;-66
2023/07/15 06:50:36;;;;;;;2.97;1.58;;;;;;;22.48;49.96;100401.19;5141781;27;20054;-66
2023/07/15 06:53:04;;;;;;;3.55;1.77;;;;;;;22.33;49.42;100393.34;5139809;27;20083;-67
2023/07/15 06:55:32;;;;;;;5.07;1.60;;;;;;;22.30;51.57;100397.50;5141820;27;20054;-63
2023/07/15 06:57:59;;;;;;;7.40;2.28;;;;;;;22.26;51.46;100396.50;5142281;27;20043;-68
2023/07/15 07:00:28;;;;;;;9.20;1.80;;;;;;;22.41;51.36;100406.28;5139987;27;20047;-68
2023/07/15 07:02:56;;;;;;;5.25;1.63;;;;;;;22.33;51.27;100405.09;5145384;27;20055;-69
2023/07/15 07:05:23;;;;;;;5.53;1.80;;;;;;;22.27;51.48;100403.59;5142174;27;20034;-68
2023/07/15 07:07:53;;;;;;;6.60;2.10;;;;;;;22.27;51.26;100411.00;5144470;27;20051;-64
2023/07/15 07:10:20;;;;;;;4.75;1.88;;;;;;;22.43;51.71;100408.72;5139034;27;20336;-66
2023/07/15 07:12:48;;;;;;;8.55;1.95;;;;;;;22.48;51.20;100414.06;5142734;27;20395;-66
2023/07/15 07:15:16;;;;;;;9.27;2.00;;;;;;;22.54;51.46;100410.84;5133996;27;20059;-66
2023/07/15 07:17:44;;;;;;;3.67;1.40;;;;;;;22.49;50.75;100418.41;5142429;27;20182;-66
2023/07/15 07:20:12;;;;;;;6.90;1.90;;;;;;;22.38;51.14;100413.19;5141380;27;20059;-66
2023/07/15 07:22:40;;;;;;;5.35;1.95;;;;;;;22.51;51.49;100413.44;5145296;27;20042;-66
2023/07/15 07:25:10;;;;;;;5.65;2.17;;;;;;;22.51;51.87;100416.16;5138477;27;20047;-66
2023/07/15 07:27:38;;;;;;;5.30;1.60;;;;;;;22.44;50.87;100410.31;5143212;27;20043;-67
2023/07/15 07:30:07;;;;;;;3.50;1.63;;;;;;;22.45;51.51;100422.91;5147617;27;20133;-66
2023/07/15 07:32:35;;;;;;;4.10;1.63;;;;;;;22.42;51.28;100423.53;5139517;27;20046;-66
2023/07/15 07:35:04;;;;;;;4.05;1.95;;;;;;;22.52;51.08;100429.56;5143088;27;20047;-66
2023/07/15 07:37:31;;;;;;;8.80;3.17;;;;;;;22.59;51.82;100420.88;5138543;27;20104;-67
2023/07/15 07:39:59;;;;;;;7.70;1.92;;;;;;;22.62;51.32;100417.50;5143372;27;20047;-67
2023/07/15 07:42:28;;;;;;;6.32;2.40;;;;;;;22.69;52.01;100415.13;5138903;27;20035;-66
2023/07/15 07:44:56;;;;;;;5.75;2.40;;;;;;;22.61;51.87;100411.22;5138649;27;20044;-66
2023/07/15 07:47:25;;;;;;;5.40;2.00;;;;;;;22.71;52.00;100413.69;5142756;27;20043;-66
2023/07/15 07:49:52;;;;;;;7.22;1.60;;;;;;;22.68;52.08;100411.59;5139780;27;20107;-66
2023/07/15 07:52:20;;;;;;;2.63;1.42;;;;;;;22.82;52.59;100419.75;5138083;28;20055;-67
2023/07/15 07:54:48;;;;;;;3.13;1.42;;;;;;;22.79;52.00;100428.59;5142132;27;20537;-66
2023/07/15 07:57:16;;;;;;;5.93;2.10;;;;;;;22.82;52.13;100418.94;5136799;28;20066;-67
2023/07/15 07:59:45;;;;;;;8.48;3.03;;;;;;;22.86;52.61;100408.97;5133414;28;20043;-66
2023/07/15 08:02:13;;;;;;;13.05;5.18;;;;;;;22.99;52.76;100399.84;5139187;28;20116;-66
2023/07/15 08:04:40;;;;;;;11.43;4.10;;;;;;;23.13;53.05;100425.22;5141463;27;20971;-66
2023/07/15 08:07:08;;;;;;;8.55;3.42;;;;;;;23.07;52.32;100437.47;5137751;27;20578;-66
2023/07/15 08:09:36;;;;;;;10.38;4.15;;;;;;;23.11;52.65;100434.91;5145924;27;20356;-65
2023/07/15 08:12:04;;;;;;;4.55;2.17;;;;;;;;;;5136005;27;20080;-66
2023/07/15 08:14:32;;;;;;;6.88;2.25;;;;;;;23.26;52.14;100443.50;5140575;28;20076;-67
2023/07/15 08:17:01;;;;;;;6.88;2.33;;;;;;;23.31;52.42;100437.06;5137925;28;20043;-66
2023/07/15 08:19:29;;;;;;;6.82;2.47;;;;;;;23.37;51.82;100436.63;5138955;28;20047;-66
2023/07/15 08:21:57;;;;;;;7.38;1.85;;;;;;;23.38;52.29;100445.66;5147167;27;20051;-66
2023/07/15 08:24:25;;;;;;;4.10;2.20;;;;;;;23.35;52.09;100443.53;5145321;27;20279;-66
2023/07/15 08:26:53;;;;;;;6.40;2.30;;;;;;;23.37;52.02;100446.78;5145657;27;20039;-66
2023/07/15 08:29:21;;;;;;;3.78;1.80;;;;;;;23.43;52.28;100445.50;5133739;28;20059;-65
2023/07/15 08:31:48;;;;;;;4.45;2.20;;;;;;;23.44;51.88;100449.88;5140632;28;20112;-65
2023/07/15 08:34:18;;;;;;;4.57;2.22;;;;;;;23.38;51.80;100440.97;5142495;28;20047;-66
2023/07/15 08:36:45;;;;;;;6.13;1.58;;;;;;;23.30;52.27;100451.91;5137825;27;20047;-69
2023/07/15 08:39:13;;;;;;;10.52;1.85;;;;;;;23.37;52.57;100457.75;5138403;27;20063;-60
2023/07/15 08:41:42;;;;;;;5.15;1.67;;;;;;;23.38;53.24;100453.88;5141075;27;20043;-67
2023/07/15 08:44:10;;;;;;;5.82;1.80;;;;;;;23.25;52.87;100471.25;5140722;27;20054;-68
2023/07/15 08:46:39;;;;;;;9.60;1.70;;;;;;;23.31;53.03;100481.75;5140946;27;20134;-67
2023/07/15 08:49:07;;;;;;;7.85;1.65;;;;;;;23.31;52.58;100465.31;5141762;27;20387;-64
2023/07/15 08:51:36;;;;;;;5.03;1.63;;;;;;;23.29;52.95;100469.50;5138809;27;20043;-66
2023/07/15 08:54:05;;;;;;;4.88;2.22;;;;;;;23.23;52.64;100477.03;5139534;27;20066;-67
2023/07/15 08:56:35;;;;;;;8.70;2.40;;;;;;;23.27;53.38;100494.47;5139976;27;20043;-67
2023/07/15 08:59:04;;;;;;;4.60;2.17;;;;;;;23.37;53.52;100493.41;5143367;27;20083;-67
2023/07/15 09:01:34;;;;;;;7.45;2.53;;;;;;;23.33;53.33;100493.22;5145157;27;20154;-68
2023/07/15 09:04:02;;;;;;;10.98;2.65;;;;;;;23.34;53.28;100477.59;5141445;27;20107;-68
2023/07/15 09:06:30;;;;;;;6.20;2.10;;;;;;;23.33;52.87;100504.19;5140510;27;20078;-72
2023/07/15 09:08:59;;;;;;;5.20;2.50;;;;;;;23.45;52.81;100494.56;5144168;27;20065;-68
2023/07/15 09:11:38;;;;;;;4.35;2.00;;;;;;;23.41;52.84;100490.84;5139040;27;20065;-68
2023/07/15 09:14:13;;;;;;;3.55;1.65;;;;;;;23.46;52.89;100486.03;5143254;27;20039;-69
2023/07/15 09:16:41;;;;;;;4.03;1.75;;;;;;;23.50;52.46;100492.50;5144311;27;20043;-68
2023/07/15 09:19:09;;;;;;;3.15;1.80;;;;;;;23.48;52.92;100485.69;5146812;27;20439;-68
2023/07/15 09:21:36;;;;;;;3.58;1.83;;;;;;;23.53;52.51;100485.56;5146441;27;20134;-67
2023/07/15 09:24:06;;;;;;;4.93;1.80;;;;;;;23.59;52.30;100473.34;5146583;27;20068;-68
2023/07/15 09:26:34;;;;;;;4.95;1.80;;;;;;;23.57;52.24;100468.19;5139013;27;20043;-69
2023/07/15 09:29:02;;;;;;;3.10;1.55;;;;;;;23.59;52.22;100487.88;5145816;27;20046;-68
2023/07/15 09:31:30;;;;;;;3.45;1.95;;;;;;;23.66;52.01;100498.38;5144233;27;20051;-68
2023/07/15 09:34:04;;;;;;;3.28;1.73;;;;;;;23.69;51.86;100486.78;5134928;27;20062;-67
2023/07/15 09:36:33;;;;;;;6.55;1.77;;;;;;;23.76;51.64;100489.06;5141895;27;20046;-68
2023/07/15 09:39:11;;;;;;;4.60;1.85;;;;;;;23.73;51.77;100508.91;5143934;27;20043;-67
2023/07/15 09:41:39;;;;;;;2.53;1.88;;;;;;;23.65;52.44;100499.50;5141283;27;20043;-68
2023/07/15 09:44:07;;;;;;;6.35;1.70;;;;;;;23.63;52.23;100494.34;5142559;27;20043;-68
2023/07/15 09:46:35;;;;;;;3.35;1.65;;;;;;;23.56;52.58;100512.41;5146017;27;20047;-67
2023/07/15 09:49:03;;;;;;;5.75;1.52;;;;;;;23.68;52.40;100512.59;5146139;27;20051;-67
2023/07/15 09:51:31;;;;;;;3.80;1.60;;;;;;;23.79;51.81;100516.66;5143424;27;20051;-68
2023/07/15 09:54:02;;;;;;;4.60;1.50;;;;;;;23.73;52.84;100517.13;5144265;27;20134;-73
2023/07/15 09:56:36;;;;;;;3.00;1.48;;;;;;;23.77;52.11;100534.59;5142278;27;20050;-71
2023/07/15 09:59:11;;;;;;;3.40;1.60;;;;;;;23.75;52.58;100545.88;5144522;27;20039;-71
2023/07/15 10:01:44;;;;;;;4.45;1.38;;;;;;;23.83;52.52;100536.06;5144619;27;20076;-72
2023/07/15 10:04:22;;;;;;;5.07;1.30;;;;;;;23.82;52.12;100535.25;5143484;27;20046;-72
2023/07/15 10:06:51;;;;;;;2.58;1.35;;;;;;;23.76;52.69;100522.78;5141639;27;20049;-71
2023/07/15 10:09:19;;;;;;;4.40;1.20;;;;;;;23.75;52.96;100526.66;5145822;27;20035;-70
2023/07/15 10:11:51;;;;;;;3.33;1.45;;;;;;;23.97;51.69;100514.78;5137105;27;20055;-70
2023/07/15 10:14:20;;;;;;;2.08;1.15;;;;;;;23.78;51.93;100506.00;5143748;27;20051;-71
2023/07/15 10:17:07;;;;;;;7.10;1.40;;;;;;;23.66;52.52;100487.41;5144964;27;20051;-72
2023/07/15 10:19:39;;;;;;;6.30;1.60;;;;;;;23.62;52.61;100480.94;5144713;27;20039;-72
2023/07/15 10:22:07;;;;;;;3.13;1.73;;;;;;;23.64;53.34;100492.41;5144595;27;20042;-71
2023/07/15 10:24:36;;;;;;;4.07;1.70;;;;;;;23.59;52.82;100482.38;5145716;27;20039;-71
2023/07/15 10:27:09;;;;;;;2.30;1.23;;;;;;;23.62;53.23;100484.50;5144121;27;20035;-69
2023/07/15 10:29:38;;;;;;;3.72;1.20;;;;;;;23.53;52.86;100480.88;5143470;27;20047;-71
2023/07/15 10:32:14;;;;;;;4.15;1.65;;;;;;;23.50;53.07;100481.53;5144661;27;20065;-72
2023/07/15 10:34:49;;;;;;;1.90;1.25;;;;;;;23.54;53.17;100503.66;5140768;27;20077;-71
2023/07/15 10:37:18;;;;;;;2.75;1.25;;;;;;;23.61;53.85;100485.63;5145071;27;20047;-71
2023/07/15 10:39:47;;;;;;;2.90;2.05;;;;;;;23.75;53.13;100493.75;5144798;27;20043;-69
2023/07/15 10:42:18;;;;;;;2.28;1.50;;;;;;;23.69;52.63;100498.56;5143736;27;20080;-71
2023/07/15 10:44:51;;;;;;;5.47;1.67;;;;;;;23.74;52.89;100499.53;5144690;27;20047;-68
2023/07/15 10:47:20;;;;;;;3.83;1.50;;;;;;;23.62;53.15;100500.16;5139123;27;20069;-67
2023/07/15 10:49:49;;;;;;;7.18;1.65;;;;;;;23.63;53.20;100490.78;5140158;27;20059;-68
2023/07/15 10:52:22;;;;;;;2.72;1.35;;;;;;;23.55;53.15;100500.59;5136227;27;20108;-67
2023/07/15 10:54:54;;;;;;;5.63;1.60;;;;;;;23.50;53.48;100506.22;5137598;27;20047;-66
2023/07/15 10:57:27;;;;;;;3.40;1.40;;;;;;;23.53;53.37;100515.75;5142381;27;20100;-66
2023/07/15 11:00:09;;;;;;;7.75;1.70;;;;;;;23.55;54.08;100519.00;5140902;27;20051;-65
2023/07/15 11:02:37;;;;;;;2.88;1.52;;;;;;;23.76;53.01;100514.56;5134736;27;20439;-65
2023/07/15 11:05:06;;;;;;;7.30;2.13;;;;;;;23.63;52.93;100510.00;5143459;27;20053;-65
2023/07/15 11:07:35;;;;;;;5.55;2.25;;;;;;;23.67;53.87;100510.97;5140940;27;20111;-66
2023/07/15 11:10:03;;;;;;;2.00;1.33;;;;;;;23.88;52.68;100513.94;5141981;27;20043;-67
2023/07/15 11:12:33;;;;;;;2.35;1.42;;;;;;;23.75;52.70;100512.94;5139213;27;20065;-66
2023/07/15 11:15:00;;;;;;;4.47;1.52;;;;;;;23.65;53.33;100518.72;5142595;27;20107;-66
2023/07/15 11:17:28;;;;;;;1.88;1.48;;;;;;;23.75;54.00;100510.19;5140196;27;20069;-67
2023/07/15 11:19:56;;;;;;;2.90;1.40;;;;;;;23.90;53.11;100501.53;5140499;27;20507;-68
2023/07/15 11:22:24;;;;;;;2.67;1.58;;;;;;;23.77;53.08;100496.16;5142440;27;20116;-65
2023/07/15 11:24:52;;;;;;;4.78;1.50;;;;;;;23.86;53.42;100495.06;5142681;27;20080;-65
2023/07/15 11:27:20;;;;;;;3.05;1.52;;;;;;;23.86;53.07;100495.06;5142895;27;20050;-66
2023/07/15 11:29:57;;;;;;;5.53;1.70;;;;;;;23.78;53.37;100495.84;5142551;27;20046;-65
2023/07/15 11:32:28;;;;;;;7.25;1.63;;;;;;;23.86;53.16;100494.25;5140032;27;20047;-65
2023/07/15 11:34:56;;;;;;;7.13;1.60;;;;;;;23.95;52.79;100495.88;5136398;27;20043;-65